Friday, March 27, 2015, 3:06 PM EDT

KW99, Petersburg, Grant County Airport

Location: Petersburg, WV, United States Lat: 38.983
Local Time: 3:06 PM EDT (19:06 GMT) Lon: -79.133
Time Zone: US/Eastern Elev: 961 ft

Show me the last for .
Show Decoded

2015-03-27 14:35 METAR KW99 271835Z AUTO 34010G14KT 10SM OVC048 07/M05 A2979 RMK AO2 T00681050 =
2015-03-27 14:15 METAR KW99 271815Z AUTO 34007KT 10SM OVC048 07/M05 A2980 RMK AO2 T00661051 =
2015-03-27 13:55 METAR KW99 271755Z AUTO 32009KT 10SM OVC048 07/M05 A2981 RMK AO2 T00671049 10074
                 20041 =
2015-03-27 13:35 METAR KW99 271735Z AUTO 30007KT 10SM BKN048 OVC055 07/M04 A2981 RMK AO2
                 T00721043 =
2015-03-27 13:15 METAR KW99 271715Z AUTO 31008G16KT 10SM BKN048 OVC055 07/M03 A2982 RMK AO2
                 T00721034 =
2015-03-27 12:55 METAR KW99 271655Z AUTO 31011KT 10SM OVC048 07/M04 A2982 RMK AO2 T00671036 =
2015-03-27 12:35 METAR KW99 271635Z AUTO 29011G15KT 10SM OVC046 07/M03 A2982 RMK AO2 T00701035 =
2015-03-27 12:15 METAR KW99 271615Z AUTO 30011G14KT 10SM SCT042 BKN048 OVC055 07/M03 A2982 RMK
                 AO2 T00681035 =
2015-03-27 11:55 METAR KW99 271555Z AUTO 31006KT 10SM OVC042 07/M03 A2983 RMK AO2 T00651031 =
2015-03-27 11:35 METAR KW99 271535Z AUTO 32006KT 10SM OVC042 07/M03 A2984 RMK AO2 T00651033 =
2015-03-27 11:15 METAR KW99 271515Z AUTO 34009KT 10SM OVC042 06/M04 A2984 RMK AO2 T00601037 =
2015-03-27 10:55 METAR KW99 271455Z AUTO 34008KT 10SM OVC044 06/M03 A2984 RMK AO2 T00561032 =
2015-03-27 10:35 METAR KW99 271435Z AUTO 36004KT 10SM BKN044 05/M03 A2983 RMK AO2 T00521028 =
2015-03-27 10:15 METAR KW99 271415Z AUTO 33003KT 10SM BKN044 OVC050 05/M03 A2984 RMK AO2
                 T00481027 =
2015-03-27 09:55 METAR KW99 271355Z AUTO 00000KT 10SM BKN039 OVC044 05/M03 A2983 RMK AO2
                 T00471027 =
2015-03-27 09:35 METAR KW99 271335Z AUTO 33005KT 10SM OVC034 04/M03 A2981 RMK AO2 T00421027 =
2015-03-27 09:15 METAR KW99 271315Z AUTO 33003KT 10SM OVC034 04/M03 A2983 RMK AO2 T00421028 =
2015-03-27 08:55 METAR KW99 271255Z AUTO 31005KT 10SM OVC034 04/M03 A2984 RMK AO2 T00421028 =
2015-03-27 08:35 METAR KW99 271235Z AUTO 01003KT 10SM OVC034 04/M03 A2983 RMK AO2 T00431028 =
2015-03-27 08:15 METAR KW99 271215Z AUTO 01003KT 10SM OVC034 04/M02 A2983 RMK AO2 T00441024 =
2015-03-27 07:55 METAR KW99 271155Z AUTO 00000KT 10SM OVC032 05/M02 A2983 RMK AO2 60002 70007
                 T00471020 10072 20047 =
2015-03-27 07:35 METAR KW99 271135Z AUTO 36003KT 10SM OVC032 05/M01 A2983 RMK AO2 T00481010 =
2015-03-27 07:15 METAR KW99 271115Z AUTO 36005KT 10SM OVC030 05/M01 A2984 RMK AO2 T00511010 =
2015-03-27 06:55 METAR KW99 271055Z AUTO 33004KT 10SM OVC030 05/M01 A2983 RMK AO2 T00521010 =
2015-03-27 06:35 METAR KW99 271035Z AUTO 35004KT 10SM OVC028 05/M01 A2982 RMK AO2 T00531013 =
2015-03-27 06:15 METAR KW99 271015Z AUTO 35004KT 10SM BKN028 OVC037 05/00 A2983 RMK AO2 T00521004
                 =
2015-03-27 05:35 METAR KW99 270935Z AUTO 34007KT 10SM BKN027 OVC035 05/00 A2980 RMK AO2 P0001
                 T00531002 =
2015-03-27 05:15 METAR KW99 270915Z AUTO 02009KT 10SM BKN026 OVC037 05/00 A2980 RMK AO2 P0001
                 T00530000 =
2015-03-27 04:55 METAR KW99 270855Z AUTO 02003KT 10SM BKN038 OVC095 06/02 A2980 RMK AO2 60001
                 T00620016 =
2015-03-27 04:35 METAR KW99 270835Z AUTO 00000KT 10SM SCT032 BKN090 OVC120 06/04 A2981 RMK AO2
                 T00570036 =
2015-03-27 04:15 METAR KW99 270815Z AUTO 00000KT 10SM -RA SCT030 BKN039 OVC085 06/03 A2981 RMK
                 AO2 T00580034 =
2015-03-27 03:35 METAR KW99 270735Z AUTO 00000KT 10SM -RA OVC033 06/03 A2982 RMK AO2 T00640034 =
2015-03-27 03:15 METAR KW99 270715Z AUTO 16003KT 10SM BKN035 OVC041 07/03 A2983 RMK AO2 T00670033
                 =
2015-03-27 02:55 METAR KW99 270655Z AUTO 00000KT 10SM -RA BKN035 OVC042 07/03 A2981 RMK AO2 P0001
                 T00670029 =
2015-03-27 02:35 METAR KW99 270635Z AUTO 00000KT 10SM -DZ BKN035 BKN048 OVC070 07/03 A2981 RMK
                 AO2 T00700033 =
2015-03-27 02:15 METAR KW99 270615Z AUTO 00000KT 10SM SCT039 BKN070 OVC095 07/03 A2982 RMK AO2
                 T00710031 =
2015-03-27 01:55 METAR KW99 270555Z AUTO 00000KT 10SM SCT055 SCT070 OVC095 07/02 A2982 RMK AO2
                 T00720021 10148 20071 402500045 =
2015-03-27 01:35 METAR KW99 270535Z AUTO 00000KT 10SM -RA SCT037 BKN055 OVC095 07/02 A2982 RMK
                 AO2 T00730022 =
2015-03-27 01:15 METAR KW99 270515Z AUTO 00000KT 10SM -RA SCT035 BKN041 OVC050 08/02 A2984 RMK
                 AO2 T00760018 =
2015-03-27 00:55 METAR KW99 270455Z AUTO 33006KT 10SM -RA SCT038 BKN055 OVC075 08/01 A2984 RMK
                 AO2 T00820014 =
2015-03-27 00:35 METAR KW99 270435Z AUTO 34004KT 10SM SCT036 BKN080 OVC085 08/02 A2983 RMK AO2
                 T00840019 =
2015-03-27 00:15 METAR KW99 270415Z AUTO 32003KT 10SM -RA SCT032 SCT050 OVC080 08/02 A2982 RMK
                 AO2 T00840021 =
2015-03-26 23:55 METAR KW99 270355Z AUTO 34004KT 10SM BKN032 BKN049 OVC055 09/01 A2981 RMK AO2
                 T00890014 =
2015-03-26 23:35 METAR KW99 270335Z AUTO 34003KT 10SM SCT032 BKN049 OVC055 09/02 A2982 RMK AO2
                 T00910017 =
2015-03-26 23:15 METAR KW99 270315Z AUTO 33007KT 10SM BKN032 BKN038 OVC050 10/02 A2983 RMK AO2
                 T00950020 =
2015-03-26 22:55 METAR KW99 270255Z AUTO 35005KT 10SM SCT032 SCT038 OVC048 10/02 A2983 RMK AO2
                 T00970022 =
2015-03-26 22:35 METAR KW99 270235Z AUTO 33004KT 10SM OVC048 10/02 A2982 RMK AO2 T00970024 =
2015-03-26 22:15 METAR KW99 270215Z AUTO 32006KT 10SM SCT028 BKN044 OVC090 10/03 A2982 RMK AO2
                 T01010030 =
2015-03-26 21:55 METAR KW99 270155Z AUTO 32008KT 10SM SCT060 SCT075 BKN090 10/03 A2981 RMK AO2
                 T01040032 =
2015-03-26 21:35 METAR KW99 270135Z AUTO 31010G18KT 10SM SCT030 SCT042 BKN100 11/04 A2980 RMK AO2
                 T01050040 =
2015-03-26 21:15 METAR KW99 270115Z AUTO 32014G18KT 10SM SCT030 SCT039 OVC065 11/04 A2980 RMK AO2
                 T01060042 =
2015-03-26 20:55 METAR KW99 270055Z AUTO 33013G21KT 10SM SCT038 BKN055 OVC065 11/05 A2978 RMK AO2
                 T01080047 =
2015-03-26 20:30 METAR KW99 270030Z AUTO 34015G23KT 10SM BKN036 OVC046 13/06 A2976 RMK AO2
                 T01270059 =
2015-03-26 20:15 METAR KW99 270015Z AUTO 34012G16KT 10SM SCT036 BKN045 OVC085 14/07 A2974 RMK AO2
                 T01370066 =
2015-03-26 19:55 METAR KW99 262355Z AUTO 34007KT 10SM SCT034 BKN085 OVC110 15/08 A2972 RMK AO2
                 60005 T01490077 10250 20146 =
2015-03-26 19:35 METAR KW99 262335Z AUTO 00000KT 10SM SCT041 BKN080 OVC110 15/08 A2970 RMK AO2
                 T01540084 =
2015-03-26 19:15 METAR KW99 262315Z AUTO 33007KT 10SM SCT041 SCT070 OVC095 15/09 A2970 RMK AO2
                 T01530089 =
2015-03-26 18:55 METAR KW99 262255Z AUTO 00000KT 10SM -DZ OVC085 15/10 A2970 RMK AO2 P0001
                 T01460099 =
2015-03-26 18:35 METAR KW99 262235Z AUTO 00000KT 10SM -RA OVC085 15/09 A2970 RMK AO2 LTG DSNT SW
                 P0001 T01460093 =
2015-03-26 18:15 METAR KW99 262215Z AUTO 27004G16KT 5SM -RA SCT060 OVC085 15/09 A2968 RMK AO2
                 P0001 T01520088 =
2015-03-26 17:55 METAR KW99 262155Z AUTO 28020G23KT 10SM -RA SCT019 SCT060 OVC085 16/09 A2967 RMK
                 AO2 LTG DSNT NE AND S P0004 T01550087 =
2015-03-26 17:35 METAR KW99 262135Z AUTO 28015G25KT 3SM +RA SCT019 BKN070 OVC095 17/09 A2967 RMK
                 AO2 LTG DSNT SW P0003 T01670087 =
2015-03-26 17:15 METAR KW99 262115Z AUTO 31017G22KT 10SM SCT070 BKN095 OVC110 19/09 A2964 RMK AO2
                 LTG DSNT SW T01870088 =
2015-03-26 16:55 METAR KW99 262055Z AUTO 30015G20KT 10SM BKN070 BKN085 BKN120 22/08 A2961 RMK AO2
                 LTG DSNT SW T02160076 =
2015-03-26 16:15 METAR KW99 262015Z AUTO 23011KT 10SM SCT080 SCT110 25/05 A2961 RMK AO2 T02460050
                 =
2015-03-26 15:55 METAR KW99 261955Z AUTO 23015G22KT 10SM SCT085 BKN090 BKN110 25/05 A2961 RMK AO2
                 T02450047 =
2015-03-26 15:35 METAR KW99 261935Z AUTO 22011G20KT 10SM BKN070 OVC095 24/05 A2962 RMK AO2
                 T02400045 =
2015-03-26 15:15 METAR KW99 261915Z AUTO 23014G18KT 10SM BKN070 BKN095 24/05 A2962 RMK AO2
                 T02420051 =

Support USWX by starting your Amazon purchase here.